createdAt,value
2022-09-28T00:01:07.242Z,64.09
2022-09-28T00:03:34.317Z,64.59
2022-09-28T00:06:03.005Z,67.19
2022-09-28T00:08:30.073Z,65.31
2022-09-28T00:10:57.527Z,65.03
2022-09-28T00:13:24.683Z,65.43
2022-09-28T00:16:01.195Z,65.70
2022-09-28T00:18:28.442Z,65.41
2022-09-28T00:21:10.147Z,66.41
2022-09-28T00:23:55.390Z,65.65
2022-09-28T00:26:22.955Z,65.78
2022-09-28T00:28:57.193Z,66.18
2022-09-28T00:31:25.253Z,65.68
2022-09-28T00:33:55.324Z,66.05
2022-09-28T00:36:21.940Z,65.69
2022-09-28T00:38:48.589Z,66.19
2022-09-28T00:41:16.134Z,66.32
2022-09-28T00:43:42.838Z,67.14
2022-09-28T00:46:34.760Z,67.31
2022-09-28T00:49:07.497Z,67.44
2022-09-28T00:51:35.155Z,67.60
2022-09-28T00:54:04.457Z,67.81
2022-09-28T00:56:35.415Z,68.53
2022-09-28T00:59:04.719Z,68.70
2022-09-28T01:01:31.607Z,68.75
2022-09-28T01:03:59.814Z,68.79
2022-09-28T01:06:31.080Z,69.85
2022-09-28T01:09:02.642Z,68.98
2022-09-28T01:11:33.961Z,69.76
2022-09-28T01:14:08.401Z,69.96
2022-09-28T01:17:12.361Z,69.74
2022-09-28T01:20:00.393Z,69.03
2022-09-28T01:22:47.231Z,69.47
2022-09-28T01:25:23.239Z,69.50
2022-09-28T01:27:54.543Z,69.61
2022-09-28T01:30:22.033Z,69.14
2022-09-28T01:33:09.643Z,68.75
2022-09-28T01:35:44.458Z,68.01
2022-09-28T01:38:14.050Z,68.00
2022-09-28T01:40:41.900Z,68.01
2022-09-28T01:43:20.486Z,67.12
2022-09-28T01:46:07.363Z,67.28
2022-09-28T01:48:45.169Z,66.99
2022-09-28T01:51:22.575Z,66.94
2022-09-28T01:53:53.680Z,67.04
2022-09-28T01:56:30.954Z,66.50
2022-09-28T01:59:10.365Z,66.96
2022-09-28T02:01:47.886Z,67.23
2022-09-28T02:04:20.083Z,67.42
2022-09-28T02:07:02.352Z,67.82
2022-09-28T02:09:47.263Z,68.25
2022-09-28T02:12:41.002Z,68.58
2022-09-28T02:15:23.097Z,68.76
2022-09-28T02:17:50.648Z,69.02
2022-09-28T02:20:18.472Z,68.97
2022-09-28T02:22:53.479Z,69.79
2022-09-28T02:25:34.708Z,70.42
2022-09-28T02:28:07.176Z,70.21
2022-09-28T02:30:37.251Z,70.20
2022-09-28T02:33:23.243Z,69.95
2022-09-28T02:35:50.478Z,70.10
2022-09-28T02:38:18.874Z,70.06
2022-09-28T02:41:17.756Z,70.09
2022-09-28T02:44:01.697Z,70.29
2022-09-28T02:46:56.177Z,69.76
2022-09-28T02:49:42.577Z,69.92
2022-09-28T02:52:21.542Z,70.88
2022-09-28T02:55:12.723Z,71.08
2022-09-28T02:57:53.448Z,71.02
2022-09-28T03:00:22.848Z,70.85
2022-09-28T03:02:58.809Z,70.86
2022-09-28T03:05:28.714Z,71.06
2022-09-28T03:08:03.581Z,70.76
2022-09-28T03:10:39.238Z,70.90
2022-09-28T03:13:06.922Z,70.69
2022-09-28T03:15:35.998Z,71.35
2022-09-28T03:18:03.577Z,71.37
2022-09-28T03:20:33.475Z,71.03
2022-09-28T03:25:48.684Z,71.87
2022-09-28T03:28:15.403Z,72.16
2022-09-28T03:30:43.486Z,72.04
2022-09-28T03:33:10.712Z,71.66
2022-09-28T03:35:38.381Z,71.27
2022-09-28T03:38:05.178Z,71.80
2022-09-28T03:40:34.469Z,72.04
2022-09-28T03:43:01.551Z,72.51
2022-09-28T03:45:28.509Z,72.40
2022-09-28T03:47:55.414Z,72.00
2022-09-28T03:50:22.093Z,72.01
2022-09-28T03:52:48.727Z,72.09
2022-09-28T03:55:15.886Z,71.83
2022-09-28T03:57:42.942Z,71.76
2022-09-28T04:00:11.034Z,71.68
2022-09-28T04:02:40.710Z,71.44
2022-09-28T04:05:10.459Z,70.77
2022-09-28T04:07:37.772Z,70.58
2022-09-28T04:10:04.719Z,69.98
2022-09-28T04:12:31.375Z,70.19
2022-09-28T04:14:58.016Z,70.07
2022-09-28T04:17:24.728Z,69.89
2022-09-28T04:19:51.977Z,69.37
2022-09-28T04:22:40.077Z,69.50
2022-09-28T04:25:07.358Z,69.01
2022-09-28T04:27:52.748Z,69.11
2022-09-28T04:30:19.434Z,69.08
2022-09-28T04:32:47.390Z,69.24
2022-09-28T04:35:15.008Z,68.99
2022-09-28T04:37:42.093Z,69.05
2022-09-28T04:40:09.500Z,68.71
2022-09-28T04:42:37.686Z,68.71
2022-09-28T04:45:05.081Z,68.76
2022-09-28T04:47:35.099Z,69.08
2022-09-28T04:50:29.990Z,69.37
2022-09-28T04:53:06.003Z,69.66
2022-09-28T04:55:32.704Z,69.66
2022-09-28T04:58:02.557Z,69.91
2022-09-28T05:00:33.207Z,69.84
2022-09-28T05:03:09.495Z,70.42
2022-09-28T05:05:55.220Z,71.01
2022-09-28T05:08:41.861Z,71.43
2022-09-28T05:11:11.563Z,71.59
2022-09-28T05:13:43.814Z,71.28
2022-09-28T05:16:13.158Z,69.79
2022-09-28T05:19:02.956Z,62.46
2022-09-28T05:21:30.849Z,57.21
2022-09-28T05:23:58.406Z,51.35
2022-09-28T05:26:25.817Z,48.15
2022-09-28T05:28:52.643Z,47.47
2022-09-28T05:31:42.765Z,49.14
2022-09-28T05:34:17.497Z,52.18
2022-09-28T05:36:45.749Z,53.97
2022-09-28T05:39:12.447Z,53.54
2022-09-28T05:41:39.182Z,55.13
2022-09-28T05:44:05.838Z,55.95
2022-09-28T05:46:32.666Z,56.29
2022-09-28T05:49:01.171Z,56.88
2022-09-28T05:51:28.184Z,57.59
2022-09-28T05:53:55.859Z,57.70
2022-09-28T05:56:24.674Z,52.81
2022-09-28T05:58:52.419Z,48.29
2022-09-28T06:01:22.895Z,44.72
2022-09-28T06:03:49.703Z,42.95
2022-09-28T06:06:16.538Z,41.64
2022-09-28T06:08:46.288Z,40.18
2022-09-28T06:11:32.671Z,38.76
2022-09-28T06:14:05.125Z,39.37
2022-09-28T06:16:32.533Z,37.81
2022-09-28T06:18:59.412Z,37.73
2022-09-28T06:21:56.227Z,38.10
2022-09-28T06:24:25.265Z,37.46
2022-09-28T06:26:52.820Z,38.23
2022-09-28T06:29:20.768Z,38.05
2022-09-28T06:31:47.735Z,37.30
2022-09-28T06:34:14.851Z,38.61
2022-09-28T06:36:41.727Z,39.13
2022-09-28T06:39:09.102Z,38.80
2022-09-28T06:41:36.796Z,39.42
2022-09-28T06:44:13.414Z,39.18
2022-09-28T06:46:58.743Z,39.36
2022-09-28T06:49:37.098Z,38.97
2022-09-28T06:52:27.433Z,38.58
2022-09-28T06:55:07.728Z,38.02
2022-09-28T06:57:42.774Z,37.64
2022-09-28T07:00:10.577Z,37.89
2022-09-28T07:02:37.795Z,38.48
2022-09-28T07:05:06.239Z,39.26
2022-09-28T07:07:56.944Z,39.81
2022-09-28T07:10:46.473Z,38.91
2022-09-28T07:16:15.347Z,39.82
2022-09-28T07:18:42.324Z,39.77
2022-09-28T07:21:15.820Z,41.29
2022-09-28T07:23:53.546Z,40.84
2022-09-28T07:26:24.725Z,45.05
2022-09-28T07:29:01.114Z,45.96
2022-09-28T07:31:40.585Z,43.85
2022-09-28T07:34:19.217Z,44.61
2022-09-28T07:36:58.187Z,48.70
2022-09-28T07:39:25.446Z,49.02
2022-09-28T07:41:56.730Z,48.49
2022-09-28T07:44:26.903Z,52.23
2022-09-28T07:46:54.381Z,50.49
2022-09-28T07:49:26.962Z,51.03
2022-09-28T07:52:12.538Z,52.10
2022-09-28T07:54:58.205Z,50.17
2022-09-28T07:57:48.297Z,50.00
2022-09-28T08:00:31.990Z,51.49
2022-09-28T08:03:01.831Z,53.68
2022-09-28T08:05:32.257Z,54.79
2022-09-28T08:07:59.782Z,55.29
2022-09-28T08:10:28.600Z,55.54
2022-09-28T08:13:02.875Z,56.27
2022-09-28T08:16:08.879Z,59.57
2022-09-28T08:18:52.681Z,62.02
2022-09-28T08:21:40.165Z,63.50
2022-09-28T08:24:07.242Z,63.67
2022-09-28T08:26:34.127Z,66.18
2022-09-28T08:29:00.868Z,66.33
2022-09-28T08:31:48.587Z,67.04
2022-09-28T08:34:39.638Z,67.73
2022-09-28T08:37:21.910Z,67.42
2022-09-28T08:40:28.655Z,67.20
2022-09-28T08:43:07.416Z,67.86
2022-09-28T08:46:07.359Z,68.47
2022-09-28T08:49:28.026Z,67.88
2022-09-28T08:52:13.587Z,66.71
2022-09-28T08:55:07.246Z,65.17
2022-09-28T08:57:48.411Z,65.49
2022-09-28T09:00:21.748Z,61.78
2022-09-28T09:02:49.489Z,62.58
2022-09-28T09:05:22.268Z,60.79
2022-09-28T09:08:35.623Z,61.35
2022-09-28T09:11:20.199Z,60.07
2022-09-28T09:14:02.401Z,58.72
2022-09-28T09:16:51.247Z,59.28
2022-09-28T09:20:04.517Z,57.33
2022-09-28T09:22:58.977Z,60.09
2022-09-28T09:25:48.300Z,60.20
2022-09-28T09:28:30.306Z,60.43
2022-09-28T09:31:22.589Z,59.07
2022-09-28T09:33:59.067Z,57.88
2022-09-28T09:37:29.510Z,57.01
2022-09-28T09:40:31.048Z,55.58
2022-09-28T09:43:30.982Z,55.56
2022-09-28T09:46:24.428Z,52.60
2022-09-28T09:49:07.305Z,52.04
2022-09-28T09:51:45.835Z,52.20
2022-09-28T09:54:23.989Z,52.86
2022-09-28T09:57:05.923Z,50.91
2022-09-28T09:59:49.191Z,49.67
2022-09-28T10:02:28.511Z,49.30
2022-09-28T10:05:21.911Z,49.04
2022-09-28T10:07:58.465Z,49.51
2022-09-28T10:10:33.483Z,51.65
2022-09-28T10:13:06.814Z,50.67
2022-09-28T10:15:35.472Z,49.19
2022-09-28T10:18:14.753Z,47.31
2022-09-28T10:21:00.272Z,48.40
2022-09-28T10:23:55.106Z,48.89
2022-09-28T10:26:55.564Z,48.19
2022-09-28T10:29:26.270Z,48.75
2022-09-28T10:31:54.587Z,47.15
2022-09-28T10:34:35.584Z,49.17
2022-09-28T10:37:11.126Z,50.03
2022-09-28T10:39:56.540Z,49.51
2022-09-28T10:42:31.722Z,48.34
2022-09-28T10:45:07.521Z,49.32
2022-09-28T10:47:43.593Z,49.59
2022-09-28T10:50:20.761Z,49.85
2022-09-28T10:52:48.302Z,50.55
2022-09-28T10:55:36.986Z,50.53
2022-09-28T10:58:34.264Z,51.67
2022-09-28T11:01:09.577Z,51.14
2022-09-28T11:04:01.751Z,51.78
2022-09-28T11:06:37.096Z,51.76
2022-09-28T11:09:15.084Z,51.11
2022-09-28T11:11:42.845Z,51.01
2022-09-28T11:14:26.755Z,51.25
2022-09-28T11:17:16.648Z,51.70
2022-09-28T11:19:45.593Z,51.60
2022-09-28T11:22:29.922Z,51.08
2022-09-28T11:25:16.408Z,51.45
2022-09-28T11:27:52.215Z,51.26
2022-09-28T11:30:29.409Z,52.28
2022-09-28T11:33:42.477Z,51.78
2022-09-28T11:36:14.911Z,51.19
2022-09-28T11:38:57.957Z,51.36
2022-09-28T11:41:58.801Z,49.83
2022-09-28T11:44:41.298Z,51.01
2022-09-28T11:47:39.382Z,50.91
2022-09-28T11:50:28.135Z,51.70
2022-09-28T11:53:22.268Z,51.16
2022-09-28T11:56:08.985Z,51.93
2022-09-28T11:58:45.934Z,51.38
2022-09-28T12:01:19.065Z,52.04
2022-09-28T12:04:17.399Z,52.08
2022-09-28T12:06:51.823Z,51.45
2022-09-28T12:09:51.319Z,52.25
2022-09-28T12:12:32.382Z,52.41
2022-09-28T12:15:21.656Z,51.41
2022-09-28T12:18:00.338Z,51.78
2022-09-28T12:20:38.547Z,51.82
2022-09-28T12:23:13.022Z,50.91
2022-09-28T12:25:48.167Z,52.31
2022-09-28T12:28:45.970Z,50.40
2022-09-28T12:31:23.591Z,51.19
2022-09-28T12:33:52.167Z,51.23
2022-09-28T12:37:10.129Z,51.87
2022-09-28T12:39:57.841Z,50.63
2022-09-28T12:43:00.168Z,51.31
2022-09-28T12:46:06.652Z,51.90
2022-09-28T12:48:44.783Z,51.81
2022-09-28T12:51:52.372Z,52.29
2022-09-28T12:54:27.737Z,51.01
2022-09-28T12:57:06.390Z,51.01
2022-09-28T12:59:39.950Z,50.21
2022-09-28T13:02:43.929Z,51.04
2022-09-28T13:05:56.070Z,51.22
2022-09-28T13:08:28.517Z,50.70
2022-09-28T13:11:10.289Z,49.35
2022-09-28T13:13:45.533Z,50.54
2022-09-28T13:16:37.636Z,50.28
2022-09-28T13:19:19.547Z,50.41
2022-09-28T13:22:01.450Z,51.28
2022-09-28T13:24:33.809Z,51.95
2022-09-28T13:27:10.466Z,51.90
2022-09-28T13:32:09.674Z,51.44
2022-09-28T13:34:38.058Z,52.54
2022-09-28T13:37:24.841Z,51.48
2022-09-28T13:39:52.213Z,52.85
2022-09-28T13:42:52.966Z,52.81
2022-09-28T13:45:22.617Z,53.96
2022-09-28T13:47:52.400Z,54.13
2022-09-28T13:50:43.263Z,53.81
2022-09-28T13:53:28.682Z,53.24
2022-09-28T13:56:30.291Z,53.65
2022-09-28T13:59:34.449Z,53.58
2022-09-28T14:02:12.734Z,53.40
2022-09-28T14:04:56.260Z,53.62
2022-09-28T14:07:34.997Z,54.07
2022-09-28T14:10:20.981Z,53.99
2022-09-28T14:12:51.627Z,53.18
2022-09-28T14:15:47.648Z,53.17
2022-09-28T14:18:24.903Z,53.24
2022-09-28T14:21:29.502Z,52.89
2022-09-28T14:24:55.524Z,53.65
2022-09-28T14:27:44.318Z,53.76
2022-09-28T14:30:11.236Z,54.32
2022-09-28T14:32:41.178Z,54.76
2022-09-28T14:35:35.211Z,55.17
2022-09-28T14:38:32.722Z,55.00
2022-09-28T14:41:17.715Z,54.79
2022-09-28T14:43:44.444Z,54.94
2022-09-28T14:46:11.464Z,55.31
2022-09-28T14:48:54.831Z,54.87
2022-09-28T14:51:27.269Z,55.94
2022-09-28T14:54:12.769Z,55.61
2022-09-28T14:56:57.159Z,56.95
2022-09-28T14:59:26.222Z,57.27
2022-09-28T15:02:11.481Z,57.17
2022-09-28T15:05:20.514Z,57.41
2022-09-28T15:07:51.653Z,57.21
2022-09-28T15:10:33.881Z,57.01
2022-09-28T15:13:16.190Z,57.22
2022-09-28T15:15:46.816Z,57.32
2022-09-28T15:18:30.401Z,57.43
2022-09-28T15:20:57.876Z,57.48
2022-09-28T15:23:36.097Z,57.83
2022-09-28T15:26:07.198Z,57.67
2022-09-28T15:28:43.687Z,57.93
2022-09-28T15:31:18.749Z,58.07
2022-09-28T15:34:04.110Z,58.33
2022-09-28T15:36:44.174Z,58.34
2022-09-28T15:39:31.509Z,58.29
2022-09-28T15:41:59.592Z,58.49
2022-09-28T15:44:32.329Z,58.93
2022-09-28T15:47:16.839Z,59.21
2022-09-28T15:49:58.657Z,59.34
2022-09-28T15:52:36.457Z,59.73
2022-09-28T15:55:34.893Z,59.93
2022-09-28T15:58:07.798Z,59.99
2022-09-28T16:00:35.181Z,60.21
2022-09-28T16:03:09.419Z,59.99
2022-09-28T16:05:49.223Z,60.25
2022-09-28T16:08:42.097Z,59.79
2022-09-28T16:11:24.312Z,59.57
2022-09-28T16:13:53.592Z,59.25
2022-09-28T16:16:26.731Z,59.49
2022-09-28T16:18:55.605Z,59.62
2022-09-28T16:21:47.079Z,59.85
2022-09-28T16:24:30.439Z,60.10
2022-09-28T16:27:01.596Z,60.29
2022-09-28T16:29:39.840Z,60.50
2022-09-28T16:32:48.115Z,60.83
2022-09-28T16:35:25.958Z,60.96
2022-09-28T16:38:09.207Z,61.77
2022-09-28T16:40:40.889Z,63.04
2022-09-28T16:43:18.131Z,63.80
2022-09-28T16:45:44.809Z,63.99
2022-09-28T16:48:19.310Z,64.34
2022-09-28T16:50:47.432Z,64.84
2022-09-28T16:53:36.184Z,64.96
2022-09-28T16:56:04.668Z,64.75
2022-09-28T16:58:31.980Z,64.77
2022-09-28T17:00:59.770Z,64.96
2022-09-28T17:03:28.294Z,65.23
2022-09-28T17:05:55.533Z,65.37
2022-09-28T17:08:25.068Z,65.58
2022-09-28T17:11:24.184Z,65.51
2022-09-28T17:13:51.927Z,65.72
2022-09-28T17:16:32.638Z,66.09
2022-09-28T17:19:18.443Z,67.03
2022-09-28T17:21:45.908Z,67.08
2022-09-28T17:24:12.635Z,67.31
2022-09-28T17:26:40.423Z,67.21
2022-09-28T17:29:09.774Z,67.49
2022-09-28T17:31:36.406Z,67.86
2022-09-28T17:34:03.089Z,67.63
2022-09-28T17:36:30.496Z,67.69
2022-09-28T17:38:57.354Z,68.39
2022-09-28T17:41:24.206Z,68.68
2022-09-28T17:43:50.906Z,68.86
2022-09-28T17:46:38.870Z,69.93
2022-09-28T17:49:07.296Z,69.81
2022-09-28T17:51:37.701Z,70.24
2022-09-28T17:54:06.938Z,70.50
2022-09-28T17:56:34.543Z,70.84
2022-09-28T17:59:04.827Z,71.32
2022-09-28T18:01:34.646Z,71.19
2022-09-28T18:04:06.041Z,71.54
2022-09-28T18:06:37.278Z,71.64
2022-09-28T18:09:04.815Z,71.47
2022-09-28T18:11:33.522Z,71.65
2022-09-28T18:14:00.657Z,71.87
2022-09-28T18:16:28.996Z,71.66
2022-09-28T18:18:56.152Z,70.61
2022-09-28T18:21:22.880Z,68.40
2022-09-28T18:23:49.633Z,66.49
2022-09-28T18:26:19.032Z,65.10
2022-09-28T18:28:46.758Z,63.24
2022-09-28T18:31:15.476Z,63.27
2022-09-28T18:33:43.386Z,62.93
2022-09-28T18:36:10.196Z,63.06
2022-09-28T18:38:38.409Z,63.62
2022-09-28T18:41:08.502Z,62.05
2022-09-28T18:43:36.481Z,61.70
2022-09-28T18:46:09.380Z,61.23
2022-09-28T18:48:36.982Z,61.54
2022-09-28T18:51:08.197Z,61.84
2022-09-28T18:53:35.456Z,62.29
2022-09-28T18:56:10.987Z,62.19
2022-09-28T18:58:39.677Z,61.82
2022-09-28T19:01:31.393Z,62.08
2022-09-28T19:04:00.641Z,62.18
2022-09-28T19:06:27.842Z,61.96
2022-09-28T19:08:58.009Z,61.86
2022-09-28T19:11:25.563Z,62.00
2022-09-28T19:13:53.630Z,62.18
2022-09-28T19:16:31.175Z,62.00
2022-09-28T19:18:58.811Z,62.26
2022-09-28T19:21:26.866Z,61.97
2022-09-28T19:23:56.253Z,64.40
2022-09-28T19:26:28.161Z,62.83
2022-09-28T19:28:59.026Z,61.84
2022-09-28T19:31:26.663Z,61.76
2022-09-28T19:33:53.330Z,61.01
2022-09-28T19:36:23.686Z,61.39
2022-09-28T19:38:52.357Z,61.12
2022-09-28T19:41:43.387Z,61.12
2022-09-28T19:44:26.759Z,60.33
2022-09-28T19:46:57.626Z,60.03
2022-09-28T19:49:27.036Z,60.02
2022-09-28T19:52:12.272Z,59.62
2022-09-28T19:54:57.062Z,59.99
2022-09-28T19:57:29.356Z,59.09
2022-09-28T20:00:01.741Z,59.36
2022-09-28T20:02:32.530Z,58.82
2022-09-28T20:04:59.383Z,58.99
2022-09-28T20:07:26.036Z,59.33
2022-09-28T20:09:52.679Z,59.39
2022-09-28T20:12:19.415Z,59.32
2022-09-28T20:14:46.294Z,59.74
2022-09-28T20:17:12.977Z,59.54
2022-09-28T20:19:39.693Z,59.38
2022-09-28T20:22:06.381Z,59.81
2022-09-28T20:24:33.100Z,60.26
2022-09-28T20:27:01.373Z,59.83
2022-09-28T20:29:28.559Z,60.10
2022-09-28T20:31:55.220Z,60.58
2022-09-28T20:34:21.845Z,60.68
2022-09-28T20:36:48.751Z,60.66
2022-09-28T20:39:15.517Z,60.58
2022-09-28T20:41:42.432Z,60.69
2022-09-28T20:44:09.902Z,61.12
2022-09-28T20:46:37.363Z,61.06
2022-09-28T20:49:05.160Z,60.68
2022-09-28T20:51:31.840Z,60.71
2022-09-28T20:53:59.291Z,60.73
2022-09-28T20:56:27.101Z,60.72
2022-09-28T20:58:54.774Z,61.08
2022-09-28T21:01:30.295Z,61.15
2022-09-28T21:03:59.432Z,61.39
2022-09-28T21:06:28.668Z,61.16
2022-09-28T21:08:57.981Z,61.76
2022-09-28T21:11:26.581Z,61.81
2022-09-28T21:13:55.704Z,62.22
2022-09-28T21:16:22.652Z,62.26
2022-09-28T21:18:49.334Z,62.72
2022-09-28T21:21:18.423Z,63.49
2022-09-28T21:23:45.362Z,62.50
2022-09-28T21:26:15.989Z,62.76
2022-09-28T21:28:44.652Z,62.98
2022-09-28T21:31:12.845Z,63.36
2022-09-28T21:33:39.595Z,63.62
2022-09-28T21:36:07.562Z,63.48
2022-09-28T21:38:34.537Z,63.48
2022-09-28T21:41:01.351Z,63.94
2022-09-28T21:43:29.962Z,63.32
2022-09-28T21:45:58.167Z,63.90
2022-09-28T21:48:27.427Z,63.67
2022-09-28T21:50:59.553Z,63.38
2022-09-28T21:53:29.029Z,63.45
2022-09-28T21:55:58.007Z,63.47
2022-09-28T21:58:27.091Z,62.98
2022-09-28T22:01:01.412Z,62.85
2022-09-28T22:03:29.069Z,62.15
2022-09-28T22:05:55.735Z,61.12
2022-09-28T22:08:23.601Z,61.18
2022-09-28T22:11:06.455Z,60.04
2022-09-28T22:13:35.240Z,59.50
2022-09-28T22:16:02.819Z,59.26
2022-09-28T22:18:31.044Z,58.90
2022-09-28T22:21:10.587Z,58.80
2022-09-28T22:23:38.853Z,59.04
2022-09-28T22:26:11.158Z,59.77
2022-09-28T22:28:37.924Z,59.25
2022-09-28T22:31:04.827Z,59.56
2022-09-28T22:33:31.759Z,59.28
2022-09-28T22:35:58.435Z,59.10
2022-09-28T22:38:25.261Z,59.90
2022-09-28T22:40:56.329Z,59.64
2022-09-28T22:43:24.460Z,59.91
2022-09-28T22:46:04.656Z,60.14
2022-09-28T22:48:31.794Z,59.46
2022-09-28T22:50:59.162Z,60.00
2022-09-28T22:53:25.880Z,60.55
2022-09-28T22:55:52.584Z,60.33
2022-09-28T22:58:19.315Z,60.27
2022-09-28T23:00:46.229Z,60.10
2022-09-28T23:03:12.922Z,60.33
2022-09-28T23:05:39.583Z,60.22
2022-09-28T23:08:07.478Z,59.99
2022-09-28T23:10:34.105Z,62.15
2022-09-28T23:13:00.764Z,62.42
2022-09-28T23:15:28.937Z,63.82
2022-09-28T23:17:55.720Z,63.41
2022-09-28T23:20:22.448Z,64.48
2022-09-28T23:22:49.907Z,65.40
2022-09-28T23:25:18.244Z,66.33
2022-09-28T23:27:49.149Z,66.60
2022-09-28T23:30:17.455Z,67.49
2022-09-28T23:32:44.822Z,67.84
2022-09-28T23:35:12.003Z,68.17
2022-09-28T23:37:38.845Z,68.45
2022-09-28T23:40:06.462Z,68.79
2022-09-28T23:42:35.506Z,69.71
2022-09-28T23:45:02.245Z,70.27
2022-09-28T23:47:28.843Z,70.68
2022-09-28T23:49:55.438Z,71.07
2022-09-28T23:52:22.116Z,71.80
2022-09-28T23:54:48.841Z,72.05
2022-09-28T23:57:15.758Z,72.60
2022-09-28T23:59:42.405Z,72.74
